createdAt,value
2022-08-11T00:00:03.445Z,23
2022-08-11T00:01:03.438Z,23
2022-08-11T00:02:03.428Z,22.9
2022-08-11T00:03:03.493Z,23
2022-08-11T00:04:03.434Z,23
2022-08-11T00:05:03.422Z,23
2022-08-11T00:06:03.442Z,23
2022-08-11T00:07:03.436Z,23
2022-08-11T00:08:03.430Z,23
2022-08-11T00:09:03.431Z,23
2022-08-11T00:10:03.444Z,23
2022-08-11T00:11:03.433Z,22.9
2022-08-11T00:13:03.680Z,22.9
2022-08-11T00:14:03.431Z,22.9
2022-08-11T00:15:03.436Z,22.9
2022-08-11T00:16:03.450Z,22.9
2022-08-11T00:17:03.437Z,22.9
2022-08-11T00:18:03.435Z,22.9
2022-08-11T00:19:03.442Z,22.8
2022-08-11T00:21:03.435Z,22.7
2022-08-11T00:22:06.087Z,22.7
2022-08-11T00:23:03.437Z,22.6
2022-08-11T00:24:03.445Z,22.6
2022-08-11T00:25:03.443Z,22.6
2022-08-11T00:26:03.439Z,22.6
2022-08-11T00:27:03.439Z,22.7
2022-08-11T00:28:03.441Z,22.6
2022-08-11T00:29:03.456Z,22.6
2022-08-11T00:30:03.448Z,22.5
2022-08-11T00:31:04.257Z,22.5
2022-08-11T00:32:03.456Z,22.5
2022-08-11T00:34:03.458Z,22.4
2022-08-11T00:35:51.692Z,22.4
2022-08-11T00:36:03.448Z,22.4
2022-08-11T00:37:03.452Z,22.4
2022-08-11T00:38:03.483Z,22.4
2022-08-11T00:39:03.450Z,22.3
2022-08-11T00:40:03.502Z,22.3
2022-08-11T00:41:03.446Z,22.3
2022-08-11T00:42:03.446Z,22.3
2022-08-11T00:43:03.449Z,22.3
2022-08-11T00:44:03.459Z,22.3
2022-08-11T00:45:03.449Z,22.3
2022-08-11T00:46:03.451Z,22.3
2022-08-11T00:47:03.447Z,22.3
2022-08-11T00:48:03.456Z,22.3
2022-08-11T00:49:03.467Z,22.3
2022-08-11T00:50:03.455Z,22.3
2022-08-11T00:51:03.453Z,22.3
2022-08-11T00:52:05.562Z,22.3
2022-08-11T00:53:03.455Z,22.3
2022-08-11T00:55:03.455Z,22.2
2022-08-11T00:56:03.462Z,22.3
2022-08-11T00:57:03.459Z,22.3
2022-08-11T00:58:03.471Z,22.3
2022-08-11T00:59:03.463Z,22.3
2022-08-11T01:01:03.586Z,22.2
2022-08-11T01:02:03.463Z,22.2
2022-08-11T01:03:03.464Z,22.3
2022-08-11T01:04:03.466Z,22.2
2022-08-11T01:05:03.464Z,22.2
2022-08-11T01:06:03.462Z,22.2
2022-08-11T01:07:03.472Z,22.2
2022-08-11T01:08:03.709Z,22.1
2022-08-11T01:09:03.471Z,22.1
2022-08-11T01:10:07.158Z,22.1
2022-08-11T01:11:03.474Z,22.1
2022-08-11T01:12:03.465Z,22
2022-08-11T01:13:03.461Z,21.9
2022-08-11T01:14:03.467Z,21.9
2022-08-11T01:15:03.465Z,21.8
2022-08-11T01:17:03.467Z,21.7
2022-08-11T01:18:03.476Z,21.6
2022-08-11T01:19:03.468Z,21.5
2022-08-11T01:20:44.537Z,21.5
2022-08-11T01:21:03.472Z,21.5
2022-08-11T01:22:03.469Z,21.4
2022-08-11T01:23:03.476Z,21.4
2022-08-11T01:24:03.479Z,21.4
2022-08-11T01:25:03.470Z,21.3
2022-08-11T01:27:03.478Z,21.2
2022-08-11T01:28:03.482Z,21.2
2022-08-11T01:29:03.480Z,21.2
2022-08-11T01:30:03.491Z,21.1
2022-08-11T01:31:03.473Z,21.1
2022-08-11T01:32:03.481Z,21.1
2022-08-11T01:33:03.486Z,21.1
2022-08-11T01:35:03.480Z,21
2022-08-11T01:36:03.484Z,21
2022-08-11T01:37:03.542Z,20.9
2022-08-11T01:38:03.477Z,20.9
2022-08-11T01:40:03.486Z,20.7
2022-08-11T01:41:03.478Z,20.7
2022-08-11T01:42:03.479Z,20.7
2022-08-11T01:43:03.482Z,20.7
2022-08-11T01:44:03.482Z,20.8
2022-08-11T01:46:03.492Z,20.8
2022-08-11T01:48:03.483Z,20.7
2022-08-11T01:50:05.127Z,20.6
2022-08-11T01:50:09.477Z,20.6
2022-08-11T01:51:03.500Z,20.6
2022-08-11T01:52:03.480Z,20.5
2022-08-11T01:53:03.481Z,20.6
2022-08-11T01:54:03.491Z,20.5
2022-08-11T01:55:03.488Z,20.5
2022-08-11T01:56:03.490Z,20.5
2022-08-11T01:57:03.483Z,20.5
2022-08-11T01:58:03.495Z,20.5
2022-08-11T01:59:03.500Z,20.4
2022-08-11T02:00:03.487Z,20.4
2022-08-11T02:01:03.549Z,20.4
2022-08-11T02:02:03.492Z,20.4
2022-08-11T02:03:03.487Z,20.4
2022-08-11T02:04:03.510Z,20.4
2022-08-11T02:05:03.503Z,20.4
2022-08-11T02:06:03.500Z,20.4
2022-08-11T02:07:03.491Z,20.4
2022-08-11T02:09:03.497Z,20.3
2022-08-11T02:10:03.515Z,20.3
2022-08-11T02:11:04.853Z,20.2
2022-08-11T02:12:03.507Z,20.2
2022-08-11T02:14:03.494Z,20.1
2022-08-11T02:15:04.997Z,20.1
2022-08-11T02:16:03.518Z,20
2022-08-11T02:17:03.503Z,20
2022-08-11T02:18:03.491Z,20
2022-08-11T02:19:03.512Z,20
2022-08-11T02:20:03.515Z,20
2022-08-11T02:21:03.514Z,20
2022-08-11T02:22:03.510Z,19.9
2022-08-11T02:23:03.516Z,19.9
2022-08-11T02:24:05.387Z,19.9
2022-08-11T02:25:03.512Z,19.9
2022-08-11T02:26:03.505Z,19.8
2022-08-11T02:27:03.510Z,19.8
2022-08-11T02:28:03.540Z,19.8
2022-08-11T02:29:03.520Z,19.8
2022-08-11T02:30:03.516Z,19.8
2022-08-11T02:31:03.512Z,19.8
2022-08-11T02:32:24.343Z,19.7
2022-08-11T02:33:03.512Z,19.7
2022-08-11T02:34:03.511Z,19.7
2022-08-11T02:35:03.509Z,19.7
2022-08-11T02:36:03.515Z,19.7
2022-08-11T02:37:03.597Z,19.7
2022-08-11T02:38:03.503Z,19.7
2022-08-11T02:39:03.513Z,19.6
2022-08-11T02:40:03.532Z,19.6
2022-08-11T02:41:03.522Z,19.6
2022-08-11T02:42:03.511Z,19.6
2022-08-11T02:43:03.510Z,19.5
2022-08-11T02:44:03.521Z,19.6
2022-08-11T02:45:03.515Z,19.6
2022-08-11T02:46:03.521Z,19.6
2022-08-11T02:47:03.511Z,19.6
2022-08-11T02:48:03.513Z,19.6
2022-08-11T02:50:07.403Z,19.6
2022-08-11T02:51:03.542Z,19.5
2022-08-11T02:52:03.515Z,19.5
2022-08-11T02:53:03.521Z,19.5
2022-08-11T02:54:03.515Z,19.5
2022-08-11T02:55:03.531Z,19.5
2022-08-11T02:56:03.524Z,19.5
2022-08-11T02:57:03.521Z,19.4
2022-08-11T02:58:03.517Z,19.4
2022-08-11T02:59:03.524Z,19.4
2022-08-11T03:00:03.520Z,19.4
2022-08-11T03:01:03.518Z,19.3
2022-08-11T03:02:05.255Z,19.3
2022-08-11T03:03:03.520Z,19.3
2022-08-11T03:04:03.539Z,19.3
2022-08-11T03:05:03.767Z,19.3
2022-08-11T03:06:03.528Z,19.3
2022-08-11T03:07:03.589Z,19.3
2022-08-11T03:08:03.519Z,19.3
2022-08-11T03:09:03.539Z,19.2
2022-08-11T03:10:03.525Z,19.2
2022-08-11T03:13:03.527Z,19.2
2022-08-11T03:14:03.526Z,19.1
2022-08-11T03:15:03.550Z,19.2
2022-08-11T03:16:03.528Z,19.2
2022-08-11T03:17:03.536Z,19.1
2022-08-11T03:18:03.531Z,19.1
2022-08-11T03:19:03.537Z,19.1
2022-08-11T03:20:03.541Z,19
2022-08-11T03:21:03.540Z,19
2022-08-11T03:22:06.534Z,19
2022-08-11T03:23:03.536Z,19
2022-08-11T03:24:03.531Z,19
2022-08-11T03:25:03.533Z,19
2022-08-11T03:26:03.535Z,19.1
2022-08-11T03:27:03.531Z,19
2022-08-11T03:28:03.540Z,19
2022-08-11T03:29:03.541Z,19.1
2022-08-11T03:32:03.536Z,19
2022-08-11T03:33:03.529Z,19
2022-08-11T03:34:06.998Z,18.9
2022-08-11T03:35:03.541Z,18.9
2022-08-11T03:36:03.540Z,18.9
2022-08-11T03:38:03.533Z,18.9
2022-08-11T03:39:03.546Z,18.9
2022-08-11T03:40:03.680Z,18.9
2022-08-11T03:41:03.540Z,18.9
2022-08-11T03:42:06.721Z,18.9
2022-08-11T03:43:03.549Z,18.9
2022-08-11T03:44:03.541Z,18.9
2022-08-11T03:45:03.548Z,18.9
2022-08-11T03:47:03.540Z,18.9
2022-08-11T03:48:03.549Z,18.8
2022-08-11T03:49:03.549Z,18.8
2022-08-11T03:50:03.550Z,18.8
2022-08-11T03:51:03.554Z,18.8
2022-08-11T03:52:03.544Z,18.9
2022-08-11T03:53:03.544Z,18.8
2022-08-11T03:54:03.543Z,18.8
2022-08-11T03:55:03.551Z,18.8
2022-08-11T03:56:03.561Z,18.8
2022-08-11T03:57:03.549Z,18.8
2022-08-11T03:58:03.540Z,18.8
2022-08-11T03:59:03.546Z,18.8
2022-08-11T04:00:03.554Z,18.7
2022-08-11T04:01:03.557Z,18.7
2022-08-11T04:02:03.606Z,18.6
2022-08-11T04:04:03.544Z,18.6
2022-08-11T04:06:03.549Z,18.5
2022-08-11T04:07:03.553Z,18.5
2022-08-11T04:08:03.549Z,18.5
2022-08-11T04:09:03.554Z,18.5
2022-08-11T04:11:03.556Z,18.6
2022-08-11T04:12:03.553Z,18.5
2022-08-11T04:13:03.560Z,18.5
2022-08-11T04:14:03.581Z,18.5
2022-08-11T04:15:03.559Z,18.6
2022-08-11T04:16:10.993Z,18.5
2022-08-11T04:17:03.560Z,18.5
2022-08-11T04:18:03.559Z,18.5
2022-08-11T04:19:03.552Z,18.4
2022-08-11T04:20:03.570Z,18.5
2022-08-11T04:21:03.557Z,18.5
2022-08-11T04:22:03.557Z,18.5
2022-08-11T04:23:03.629Z,18.5
2022-08-11T04:24:35.439Z,18.4
2022-08-11T04:25:03.557Z,18.4
2022-08-11T04:26:03.562Z,18.4
2022-08-11T04:27:05.048Z,18.3
2022-08-11T04:28:03.559Z,18.4
2022-08-11T04:29:03.566Z,18.4
2022-08-11T04:30:05.615Z,18.4
2022-08-11T04:31:03.572Z,18.4
2022-08-11T04:32:03.556Z,18.4
2022-08-11T04:33:03.562Z,18.4
2022-08-11T04:34:03.611Z,18.4
2022-08-11T04:35:03.563Z,18.4
2022-08-11T04:36:03.567Z,18.5
2022-08-11T04:37:03.626Z,18.5
2022-08-11T04:38:03.576Z,18.6
2022-08-11T04:39:03.600Z,18.6
2022-08-11T04:40:03.567Z,18.7
2022-08-11T04:41:03.567Z,18.7
2022-08-11T04:42:03.580Z,18.7
2022-08-11T04:43:03.569Z,18.7
2022-08-11T04:44:06.670Z,18.7
2022-08-11T04:45:03.570Z,18.7
2022-08-11T04:46:03.577Z,18.7
2022-08-11T04:48:04.895Z,18.8
2022-08-11T04:49:03.585Z,18.8
2022-08-11T04:50:03.577Z,18.9
2022-08-11T04:51:16.625Z,18.9
2022-08-11T04:52:03.575Z,18.9
2022-08-11T04:53:03.571Z,18.9
2022-08-11T04:54:03.577Z,18.9
2022-08-11T04:55:03.581Z,18.9
2022-08-11T04:56:03.584Z,18.9
2022-08-11T04:57:03.578Z,19
2022-08-11T04:59:03.576Z,19.1
2022-08-11T05:00:03.605Z,19.3
2022-08-11T05:02:03.681Z,19.6
2022-08-11T05:03:03.592Z,19.7
2022-08-11T05:04:03.578Z,19.8
2022-08-11T05:05:03.664Z,20
2022-08-11T05:06:03.580Z,20.1
2022-08-11T05:07:03.590Z,20.2
2022-08-11T05:08:03.601Z,20.2
2022-08-11T05:09:03.588Z,20.3
2022-08-11T05:10:03.591Z,20.3
2022-08-11T05:11:03.593Z,20.5
2022-08-11T05:12:03.585Z,20.5
2022-08-11T05:13:03.582Z,20.6
2022-08-11T05:14:03.591Z,20.7
2022-08-11T05:15:03.599Z,20.7
2022-08-11T05:16:03.602Z,20.7
2022-08-11T05:17:03.594Z,20.7
2022-08-11T05:19:03.590Z,20.6
2022-08-11T05:20:03.600Z,20.7
2022-08-11T05:21:05.142Z,20.8
2022-08-11T05:22:03.583Z,20.8
2022-08-11T05:23:03.596Z,20.9
2022-08-11T05:24:03.582Z,20.9
2022-08-11T05:25:03.609Z,20.9
2022-08-11T05:26:44.460Z,20.9
2022-08-11T05:27:03.598Z,20.9
2022-08-11T05:28:03.602Z,21
2022-08-11T05:29:08.292Z,21
2022-08-11T05:30:03.618Z,21
2022-08-11T05:31:03.589Z,21
2022-08-11T05:32:03.593Z,21.1
2022-08-11T05:33:03.595Z,21.1
2022-08-11T05:34:03.600Z,20.9
2022-08-11T05:35:03.592Z,20.9
2022-08-11T05:36:03.609Z,20.9
2022-08-11T05:37:25.122Z,20.9
2022-08-11T05:38:03.594Z,20.9
2022-08-11T05:40:03.709Z,20.9
2022-08-11T05:41:03.611Z,21
2022-08-11T05:42:03.602Z,21
2022-08-11T05:43:03.601Z,20.9
2022-08-11T05:44:21.144Z,20.9
2022-08-11T05:45:03.600Z,20.9
2022-08-11T05:46:07.165Z,20.8
2022-08-11T05:49:03.610Z,21
2022-08-11T05:50:03.610Z,21.2
2022-08-11T05:51:03.611Z,21.2
2022-08-11T05:52:05.681Z,21.5
2022-08-11T05:53:03.605Z,21.7
2022-08-11T05:54:03.628Z,21.8
2022-08-11T05:55:05.360Z,21.7
2022-08-11T05:56:04.019Z,21.8
2022-08-11T05:57:03.610Z,22.2
2022-08-11T05:58:03.610Z,22.4
2022-08-11T05:59:03.610Z,22.4
2022-08-11T06:00:03.611Z,22.5
2022-08-11T06:01:03.612Z,22.7
2022-08-11T06:02:03.659Z,22.8
2022-08-11T06:03:03.607Z,23.1
2022-08-11T06:04:03.616Z,23.3
2022-08-11T06:05:03.619Z,23.4
2022-08-11T06:06:03.613Z,23.1
2022-08-11T06:07:03.611Z,23.2
2022-08-11T06:09:03.620Z,23.7
2022-08-11T06:10:03.618Z,23.7
2022-08-11T06:11:03.615Z,23.7
2022-08-11T06:12:03.632Z,24
2022-08-11T06:13:03.616Z,24.1
2022-08-11T06:14:03.618Z,24.2
2022-08-11T06:15:03.625Z,24.3
2022-08-11T06:16:06.818Z,23.9
2022-08-11T06:17:03.625Z,23.8
2022-08-11T06:18:03.628Z,24.3
2022-08-11T06:19:03.618Z,24.4
2022-08-11T06:20:05.538Z,24.1
2022-08-11T06:21:03.623Z,24.2
2022-08-11T06:22:03.619Z,24.3
2022-08-11T06:23:03.631Z,24.1
2022-08-11T06:24:03.623Z,23.8
2022-08-11T06:25:03.627Z,24
2022-08-11T06:26:03.632Z,24
2022-08-11T06:27:19.125Z,24.1
2022-08-11T06:28:03.633Z,24.5
2022-08-11T06:29:03.625Z,24.5
2022-08-11T06:30:03.624Z,24.7
2022-08-11T06:31:03.625Z,24.9
2022-08-11T06:32:03.646Z,25.1
2022-08-11T06:33:03.647Z,24.6
2022-08-11T06:34:03.662Z,24.8
2022-08-11T06:35:03.663Z,24.9
2022-08-11T06:36:03.632Z,25.1
2022-08-11T06:37:03.633Z,25.3
2022-08-11T06:38:03.657Z,25.3
2022-08-11T06:40:03.650Z,25.4
2022-08-11T06:41:03.639Z,25.6
2022-08-11T06:42:03.633Z,25.7
2022-08-11T06:43:03.645Z,25.9
2022-08-11T06:44:05.425Z,26
2022-08-11T06:45:03.642Z,25.9
2022-08-11T06:46:03.648Z,25.9
2022-08-11T06:47:03.647Z,25.9
2022-08-11T06:48:03.634Z,26
2022-08-11T06:49:03.649Z,26.1
2022-08-11T06:50:03.640Z,26.3
2022-08-11T06:51:03.642Z,26.5
2022-08-11T06:52:04.555Z,26.6
2022-08-11T06:53:03.649Z,26.4
2022-08-11T06:54:05.664Z,26.5
2022-08-11T06:55:03.657Z,26.6
2022-08-11T06:56:03.647Z,26.7
2022-08-11T06:58:03.654Z,26.6
2022-08-11T06:59:03.653Z,26.7
2022-08-11T07:01:03.752Z,26.8
2022-08-11T07:02:03.657Z,26.9
2022-08-11T07:03:03.652Z,26.9
2022-08-11T07:04:03.654Z,26.8
2022-08-11T07:05:03.647Z,26.8
2022-08-11T07:06:03.663Z,26.7
2022-08-11T07:07:03.672Z,26.7
2022-08-11T07:08:34.623Z,26.7
2022-08-11T07:09:03.659Z,26.7
2022-08-11T07:10:03.658Z,26.6
2022-08-11T07:12:03.661Z,26.5
2022-08-11T07:13:03.661Z,26.5
2022-08-11T07:14:03.757Z,26.5
2022-08-11T07:15:03.659Z,26.6
2022-08-11T07:16:11.422Z,26.6
2022-08-11T07:17:03.671Z,26.7
2022-08-11T07:18:03.657Z,26.8
2022-08-11T07:19:03.657Z,26.9
2022-08-11T07:20:03.673Z,27
2022-08-11T07:21:03.668Z,27
2022-08-11T07:22:04.119Z,26.8
2022-08-11T07:23:03.674Z,26.8
2022-08-11T07:24:03.668Z,26.5
2022-08-11T07:25:03.864Z,26.7
2022-08-11T07:26:03.669Z,26.7
2022-08-11T07:27:03.663Z,27
2022-08-11T07:28:03.667Z,27
2022-08-11T07:29:03.672Z,27.1
2022-08-11T07:30:03.670Z,27
2022-08-11T07:31:03.672Z,27.1
2022-08-11T07:32:03.671Z,27.1
2022-08-11T07:33:03.675Z,27.1
2022-08-11T07:34:07.587Z,27.2
2022-08-11T07:36:03.688Z,27.5
2022-08-11T07:37:03.750Z,27.7
2022-08-11T07:38:07.073Z,27.7
2022-08-11T07:39:03.682Z,27.7
2022-08-11T07:40:03.690Z,27.8
2022-08-11T07:41:03.677Z,27.8
2022-08-11T07:42:03.677Z,28
2022-08-11T07:43:03.697Z,28
2022-08-11T07:44:03.670Z,28.1
2022-08-11T07:45:03.692Z,28.1
2022-08-11T07:46:03.685Z,28.1
2022-08-11T07:47:03.679Z,28
2022-08-11T07:48:03.681Z,28.1
2022-08-11T07:49:03.674Z,28.1
2022-08-11T07:51:03.680Z,28
2022-08-11T07:52:03.684Z,28.1
2022-08-11T07:53:03.675Z,28.2
2022-08-11T07:54:15.342Z,28.2
2022-08-11T07:55:03.686Z,28.1
2022-08-11T07:56:03.694Z,28.1
2022-08-11T07:57:08.966Z,28.1
2022-08-11T07:58:19.232Z,28.1
2022-08-11T07:59:08.204Z,28.1
2022-08-11T08:00:05.096Z,28.1
2022-08-11T08:01:03.789Z,28.3
2022-08-11T08:02:03.764Z,28.3
2022-08-11T08:03:03.695Z,28.6
2022-08-11T08:04:03.684Z,28.6
2022-08-11T08:05:03.693Z,28.6
2022-08-11T08:06:03.687Z,28.6
2022-08-11T08:07:03.699Z,28.6
2022-08-11T08:08:03.700Z,28.7
2022-08-11T08:09:03.693Z,28.7
2022-08-11T08:10:03.695Z,28.6
2022-08-11T08:12:03.689Z,28.8
2022-08-11T08:13:03.733Z,28.8
2022-08-11T08:14:03.690Z,28.8
2022-08-11T08:15:03.695Z,28.9
2022-08-11T08:16:03.700Z,28.9
2022-08-11T08:17:03.703Z,29
2022-08-11T08:18:09.669Z,29
2022-08-11T08:20:03.700Z,28.8
2022-08-11T08:21:03.725Z,29
2022-08-11T08:22:11.970Z,29.1
2022-08-11T08:23:03.730Z,29.1
2022-08-11T08:24:03.737Z,29.1
2022-08-11T08:25:03.704Z,29.2
2022-08-11T08:26:03.699Z,29.3
2022-08-11T08:27:03.714Z,29.2
2022-08-11T08:28:03.697Z,29.2
2022-08-11T08:29:03.703Z,29.4
2022-08-11T08:30:03.715Z,29.5
2022-08-11T08:31:03.717Z,29.5
2022-08-11T08:33:03.701Z,29.6
2022-08-11T08:34:03.703Z,29.5
2022-08-11T08:35:03.719Z,29.5
2022-08-11T08:36:03.702Z,29.6
2022-08-11T08:37:16.021Z,29.6
2022-08-11T08:38:03.733Z,29.5
2022-08-11T08:39:03.710Z,29.5
2022-08-11T08:40:03.733Z,29.5
2022-08-11T08:43:03.710Z,29.7
2022-08-11T08:44:34.747Z,29.8
2022-08-11T08:45:03.715Z,29.9
2022-08-11T08:46:03.709Z,29.7
2022-08-11T08:47:03.715Z,29.6
2022-08-11T08:48:03.713Z,29.7
2022-08-11T08:49:03.713Z,29.7
2022-08-11T08:50:03.727Z,29.9
2022-08-11T08:51:03.720Z,30.1
2022-08-11T08:52:26.318Z,30.1
2022-08-11T08:53:03.729Z,30.3
2022-08-11T08:54:03.711Z,30.4
2022-08-11T08:55:03.728Z,30.5
2022-08-11T08:56:03.721Z,30.5
2022-08-11T08:57:03.722Z,30.5
2022-08-11T08:58:03.721Z,30.6
2022-08-11T08:59:03.767Z,30.6
2022-08-11T09:00:03.755Z,30.6
2022-08-11T09:01:03.773Z,30.7
2022-08-11T09:02:03.734Z,30.8
2022-08-11T09:03:22.805Z,30.9
2022-08-11T09:04:11.226Z,30.9
2022-08-11T09:05:03.859Z,30.9
2022-08-11T09:06:03.735Z,30.9
2022-08-11T09:08:03.732Z,31
2022-08-11T09:09:03.729Z,31
2022-08-11T09:10:03.746Z,30.9
2022-08-11T09:11:03.729Z,31
2022-08-11T09:12:03.735Z,30.8
2022-08-11T09:13:03.734Z,30.8
2022-08-11T09:14:05.482Z,31
2022-08-11T09:15:03.744Z,31.2
2022-08-11T09:16:03.732Z,31.2
2022-08-11T09:17:03.731Z,31.4
2022-08-11T09:18:03.839Z,31.4
2022-08-11T09:19:03.749Z,31.4
2022-08-11T09:20:03.731Z,31.5
2022-08-11T09:21:03.733Z,31.5
2022-08-11T09:24:12.839Z,31.8
2022-08-11T09:26:03.746Z,31.8
2022-08-11T09:27:03.736Z,31.9
2022-08-11T09:28:03.733Z,31.8
2022-08-11T09:29:03.742Z,31.9
2022-08-11T09:30:03.742Z,31.8
2022-08-11T09:31:03.746Z,31.8
2022-08-11T09:32:03.745Z,31.9
2022-08-11T09:33:03.759Z,32
2022-08-11T09:34:03.739Z,32
2022-08-11T09:35:03.748Z,32
2022-08-11T09:36:03.807Z,32.1
2022-08-11T09:38:03.824Z,32.3
2022-08-11T09:39:03.745Z,32.2
2022-08-11T09:40:03.742Z,32.2
2022-08-11T09:41:03.750Z,32.2
2022-08-11T09:42:04.338Z,32.3
2022-08-11T09:43:03.749Z,32.4
2022-08-11T09:44:04.472Z,32.1
2022-08-11T09:45:03.754Z,31.6
2022-08-11T09:47:03.778Z,31.8
2022-08-11T09:48:03.762Z,31.8
2022-08-11T09:49:03.751Z,31.7
2022-08-11T09:50:03.765Z,31.7
2022-08-11T09:51:03.759Z,31.5
2022-08-11T09:53:35.222Z,31.5
2022-08-11T09:54:04.180Z,31.6
2022-08-11T09:55:03.759Z,31.6
2022-08-11T09:56:03.756Z,31.6
2022-08-11T09:57:05.481Z,31.7
2022-08-11T09:58:03.760Z,31.9
2022-08-11T09:59:03.760Z,31.8
2022-08-11T10:00:12.195Z,31.7
2022-08-11T10:01:03.918Z,31.7
2022-08-11T10:02:03.796Z,31.5
2022-08-11T10:03:03.759Z,31.5
2022-08-11T10:04:03.770Z,31.6
2022-08-11T10:05:03.765Z,31.6
2022-08-11T10:06:07.881Z,31.6
2022-08-11T10:07:04.634Z,31.6
2022-08-11T10:08:03.765Z,31.7
2022-08-11T10:09:03.774Z,31.8
2022-08-11T10:10:03.771Z,31.9
2022-08-11T10:11:03.789Z,31.8
2022-08-11T10:12:03.769Z,31.9
2022-08-11T10:13:03.764Z,31.9
2022-08-11T10:15:03.783Z,31.7
2022-08-11T10:16:15.363Z,31.6
2022-08-11T10:17:03.774Z,31.6
2022-08-11T10:18:03.775Z,31.5
2022-08-11T10:19:04.151Z,31.5
2022-08-11T10:20:05.435Z,31.2
2022-08-11T10:22:03.795Z,31.3
2022-08-11T10:23:03.781Z,31.4
2022-08-11T10:24:06.029Z,31.3
2022-08-11T10:25:03.793Z,31.1
2022-08-11T10:26:03.787Z,31.3
2022-08-11T10:27:03.771Z,31.3
2022-08-11T10:28:28.132Z,31.4
2022-08-11T10:29:12.927Z,31.3
2022-08-11T10:30:03.779Z,31.3
2022-08-11T10:31:03.776Z,31.4
2022-08-11T10:32:04.332Z,31.4
2022-08-11T10:33:03.788Z,31.6
2022-08-11T10:34:03.896Z,31.7
2022-08-11T10:35:03.781Z,31.8
2022-08-11T10:36:03.779Z,31.8
2022-08-11T10:37:03.784Z,31.9
2022-08-11T10:38:15.742Z,31.8
2022-08-11T10:40:03.789Z,31.6
2022-08-11T10:41:03.787Z,31.7
2022-08-11T10:42:07.785Z,31.4
2022-08-11T10:43:03.785Z,30.8
2022-08-11T10:44:04.239Z,31
2022-08-11T10:45:03.792Z,31.1
2022-08-11T10:47:03.796Z,31.4
2022-08-11T10:48:03.791Z,31.5
2022-08-11T10:49:03.806Z,31.5
2022-08-11T10:50:05.161Z,31.4
2022-08-11T10:51:03.793Z,31.3
2022-08-11T10:52:03.858Z,31.1
2022-08-11T10:53:03.800Z,31
2022-08-11T10:54:03.797Z,31.1
2022-08-11T10:55:03.795Z,31.1
2022-08-11T10:57:03.801Z,31
2022-08-11T10:58:05.175Z,30.8
2022-08-11T11:00:03.808Z,30.8
2022-08-11T11:01:03.896Z,30.9
2022-08-11T11:02:03.805Z,30.9
2022-08-11T11:04:03.820Z,31.1
2022-08-11T11:05:03.803Z,31.2
2022-08-11T11:06:27.722Z,31.3
2022-08-11T11:07:03.798Z,31.3
2022-08-11T11:08:03.803Z,31.3
2022-08-11T11:09:04.998Z,31.4
2022-08-11T11:11:03.807Z,31.1
2022-08-11T11:12:03.807Z,31.2
2022-08-11T11:13:03.805Z,31.2
2022-08-11T11:14:03.811Z,31.2
2022-08-11T11:15:03.845Z,31.3
2022-08-11T11:16:03.813Z,31.3
2022-08-11T11:17:03.808Z,31.3
2022-08-11T11:18:03.808Z,31.3
2022-08-11T11:19:03.818Z,31.1
2022-08-11T11:20:03.824Z,31
2022-08-11T11:22:03.809Z,31
2022-08-11T11:23:03.810Z,31.1
2022-08-11T11:24:03.821Z,31.2
2022-08-11T11:25:03.822Z,31.2
2022-08-11T11:26:03.821Z,31.1
2022-08-11T11:27:03.806Z,30.8
2022-08-11T11:28:03.811Z,30.8
2022-08-11T11:29:03.820Z,30.7
2022-08-11T11:30:03.840Z,30.7
2022-08-11T11:31:03.812Z,30.9
2022-08-11T11:32:03.820Z,30.5
2022-08-11T11:33:03.814Z,30.7
2022-08-11T11:34:12.397Z,30.7
2022-08-11T11:37:03.823Z,30.5
2022-08-11T11:38:05.684Z,30.6
2022-08-11T11:39:03.821Z,30.7
2022-08-11T11:40:03.830Z,30.8
2022-08-11T11:41:03.822Z,30.6
2022-08-11T11:43:03.838Z,30.7
2022-08-11T11:44:03.826Z,30.7
2022-08-11T11:45:03.831Z,30.7
2022-08-11T11:46:03.826Z,30.6
2022-08-11T11:47:03.828Z,30.6
2022-08-11T11:48:03.833Z,30.6
2022-08-11T11:49:03.913Z,30.6
2022-08-11T11:50:03.827Z,30.6
2022-08-11T11:51:03.831Z,30.6
2022-08-11T11:52:03.896Z,30.6
2022-08-11T11:53:03.836Z,30.7
2022-08-11T11:54:03.846Z,30.8
2022-08-11T11:55:03.832Z,30.8
2022-08-11T11:56:03.829Z,30.9
2022-08-11T11:58:03.826Z,30.8
2022-08-11T11:59:03.840Z,30.7
2022-08-11T12:00:03.838Z,30.6
2022-08-11T12:01:03.832Z,30.6
2022-08-11T12:02:11.634Z,30.6
2022-08-11T12:04:03.831Z,30.7
2022-08-11T12:05:04.227Z,30.7
2022-08-11T12:06:03.847Z,30.8
2022-08-11T12:07:03.897Z,30.8
2022-08-11T12:08:12.945Z,30.7
2022-08-11T12:10:03.840Z,30.6
2022-08-11T12:11:03.864Z,30.5
2022-08-11T12:12:03.837Z,30.6
2022-08-11T12:13:03.837Z,30.4
2022-08-11T12:14:04.685Z,30.5
2022-08-11T12:15:03.843Z,30.5
2022-08-11T12:16:33.465Z,30.6
2022-08-11T12:17:03.848Z,30.7
2022-08-11T12:18:03.844Z,30.6
2022-08-11T12:19:03.868Z,30.6
2022-08-11T12:20:03.841Z,30.6
2022-08-11T12:21:03.851Z,30.6
2022-08-11T12:22:03.849Z,30.7
2022-08-11T12:23:03.852Z,30.7
2022-08-11T12:25:03.854Z,30.7
2022-08-11T12:26:25.936Z,30.7
2022-08-11T12:27:16.185Z,30.7
2022-08-11T12:28:03.850Z,30.7
2022-08-11T12:29:03.850Z,30.7
2022-08-11T12:30:03.865Z,30.7
2022-08-11T12:31:03.861Z,30.6
2022-08-11T12:32:03.864Z,30.5
2022-08-11T12:33:03.857Z,30.6
2022-08-11T12:34:03.872Z,30.6
2022-08-11T12:35:03.856Z,30.6
2022-08-11T12:36:03.857Z,30.5
2022-08-11T12:37:03.872Z,30.6
2022-08-11T12:38:09.532Z,30.6
2022-08-11T12:39:06.115Z,30.5
2022-08-11T12:40:16.095Z,30.4
2022-08-11T12:41:16.841Z,30.3
2022-08-11T12:42:03.984Z,30.4
2022-08-11T12:43:08.268Z,30.4
2022-08-11T12:44:03.880Z,30.4
2022-08-11T12:46:03.861Z,30.5
2022-08-11T12:47:03.863Z,30.5
2022-08-11T12:48:13.986Z,30.6
2022-08-11T12:49:04.097Z,30.6
2022-08-11T12:50:03.871Z,30.5
2022-08-11T12:51:03.862Z,30.5
2022-08-11T12:53:03.868Z,30.5
2022-08-11T12:54:03.865Z,30.5
2022-08-11T12:55:03.893Z,30.5
2022-08-11T12:57:03.869Z,30.5
2022-08-11T12:58:03.873Z,30.5
2022-08-11T12:59:03.875Z,30.5
2022-08-11T13:00:03.873Z,30.5
2022-08-11T13:01:03.935Z,30.5
2022-08-11T13:02:03.869Z,30.5
2022-08-11T13:03:03.873Z,30.6
2022-08-11T13:04:03.878Z,30.6
2022-08-11T13:05:03.880Z,30.5
2022-08-11T13:06:03.885Z,30.6
2022-08-11T13:07:03.880Z,30.5
2022-08-11T13:08:03.874Z,30.5
2022-08-11T13:09:03.879Z,30.7
2022-08-11T13:10:03.955Z,30.7
2022-08-11T13:11:03.895Z,30.6
2022-08-11T13:12:03.890Z,30.7
2022-08-11T13:13:03.881Z,30.7
2022-08-11T13:14:03.895Z,30.6
2022-08-11T13:15:03.898Z,30.6
2022-08-11T13:18:03.884Z,30.5
2022-08-11T13:19:03.879Z,30.5
2022-08-11T13:20:03.882Z,30.6
2022-08-11T13:21:03.895Z,30.6
2022-08-11T13:22:03.895Z,30.6
2022-08-11T13:23:03.892Z,30.5
2022-08-11T13:24:03.946Z,30.5
2022-08-11T13:25:03.889Z,30.5
2022-08-11T13:26:03.920Z,30.6
2022-08-11T13:27:03.906Z,30.6
2022-08-11T13:28:03.897Z,30.7
2022-08-11T13:29:03.898Z,30.7
2022-08-11T13:30:03.903Z,30.7
2022-08-11T13:31:03.895Z,30.7
2022-08-11T13:32:03.975Z,30.7
2022-08-11T13:33:03.897Z,30.7
2022-08-11T13:35:03.905Z,30.6
2022-08-11T13:36:03.902Z,30.6
2022-08-11T13:37:03.952Z,30.7
2022-08-11T13:40:03.917Z,30.7
2022-08-11T13:41:03.905Z,30.7
2022-08-11T13:42:03.923Z,30.5
2022-08-11T13:43:03.903Z,30.5
2022-08-11T13:44:03.898Z,30.5
2022-08-11T13:45:03.902Z,30.5
2022-08-11T13:46:03.904Z,30.5
2022-08-11T13:47:03.921Z,30.5
2022-08-11T13:48:03.907Z,30.5
2022-08-11T13:49:03.903Z,30.5
2022-08-11T13:50:03.916Z,30.5
2022-08-11T13:51:03.905Z,30.5
2022-08-11T13:52:03.913Z,30.6
2022-08-11T13:53:03.913Z,30.6
2022-08-11T13:55:03.906Z,30.6
2022-08-11T13:56:03.908Z,30.6
2022-08-11T13:57:03.922Z,30.5
2022-08-11T13:58:09.043Z,30.5
2022-08-11T14:00:03.928Z,30.6
2022-08-11T14:02:03.580Z,30.6
2022-08-11T14:02:21.995Z,30.6
2022-08-11T14:03:04.068Z,30.5
2022-08-11T14:04:30.075Z,30.5
2022-08-11T14:05:03.963Z,30.5
2022-08-11T14:06:03.933Z,30.5
2022-08-11T14:07:03.927Z,30.5
2022-08-11T14:08:03.917Z,30.5
2022-08-11T14:09:03.930Z,30.5
2022-08-11T14:10:04.012Z,30.5
2022-08-11T14:11:03.924Z,30.5
2022-08-11T14:12:21.394Z,30.6
2022-08-11T14:13:03.927Z,30.5
2022-08-11T14:14:03.923Z,30.5
2022-08-11T14:15:08.057Z,30.5
2022-08-11T14:16:03.925Z,30.5
2022-08-11T14:17:03.922Z,30.5
2022-08-11T14:18:03.928Z,30.5
2022-08-11T14:19:03.923Z,30.5
2022-08-11T14:21:03.978Z,30.6
2022-08-11T14:22:07.660Z,30.5
2022-08-11T14:23:03.957Z,30.4
2022-08-11T14:24:03.926Z,30.5
2022-08-11T14:25:03.952Z,30.4
2022-08-11T14:27:03.925Z,30.5
2022-08-11T14:28:32.415Z,30.5
2022-08-11T14:29:03.963Z,30.5
2022-08-11T14:30:04.012Z,30.5
2022-08-11T14:31:03.927Z,30.5
2022-08-11T14:32:03.971Z,30.6
2022-08-11T14:33:14.266Z,30.6
2022-08-11T14:35:03.935Z,30.6
2022-08-11T14:36:03.958Z,30.6
2022-08-11T14:37:03.967Z,30.6
2022-08-11T14:38:05.381Z,30.6
2022-08-11T14:39:03.934Z,30.5
2022-08-11T14:40:04.448Z,30.5